createdAt,value
2023-03-27T00:02:13.806Z,18.50
2023-03-27T00:04:44.219Z,18.10
2023-03-27T00:07:12.919Z,17.00
2023-03-27T00:09:44.248Z,17.40
2023-03-27T00:12:22.421Z,17.90
2023-03-27T00:14:52.446Z,18.30
2023-03-27T00:17:20.525Z,19.20
2023-03-27T00:19:53.735Z,15.20
2023-03-27T00:22:22.230Z,15.10
2023-03-27T00:24:51.038Z,18.00
2023-03-27T00:27:21.882Z,14.50
2023-03-27T00:29:50.577Z,15.90
2023-03-27T00:32:19.560Z,14.50
2023-03-27T00:34:47.958Z,17.10
2023-03-27T00:37:17.085Z,13.10
2023-03-27T00:39:50.184Z,14.30
2023-03-27T00:42:22.804Z,14.10
2023-03-27T00:44:52.103Z,13.50
2023-03-27T00:47:25.936Z,14.50
2023-03-27T00:49:54.099Z,13.40
2023-03-27T00:52:22.711Z,14.90
2023-03-27T00:54:51.105Z,14.40
2023-03-27T00:57:19.370Z,13.70
2023-03-27T00:59:49.590Z,13.50
2023-03-27T01:02:17.915Z,14.70
2023-03-27T01:04:46.678Z,16.70
2023-03-27T01:07:15.469Z,11.80
2023-03-27T01:09:46.320Z,14.50
2023-03-27T01:12:45.829Z,13.70
2023-03-27T01:15:42.345Z,14.50
2023-03-27T01:18:41.588Z,14.70
2023-03-27T01:21:49.526Z,13.00
2023-03-27T01:24:38.564Z,17.00
2023-03-27T01:27:31.146Z,13.00
2023-03-27T01:30:24.728Z,16.70
2023-03-27T01:33:01.617Z,16.50
2023-03-27T01:36:01.013Z,15.90
2023-03-27T01:39:05.452Z,14.80
2023-03-27T01:41:33.631Z,17.20
2023-03-27T01:44:17.439Z,14.40
2023-03-27T01:46:51.620Z,17.70
2023-03-27T01:49:29.009Z,19.50
2023-03-27T01:52:02.286Z,17.30
2023-03-27T01:54:38.592Z,17.30
2023-03-27T01:57:16.432Z,18.40
2023-03-27T01:59:47.234Z,16.80
2023-03-27T02:02:19.430Z,14.90
2023-03-27T02:07:33.142Z,17.10
2023-03-27T02:10:04.302Z,20.00
2023-03-27T02:12:34.339Z,17.00
2023-03-27T02:15:32.516Z,17.60
2023-03-27T02:18:05.379Z,18.40
2023-03-27T02:20:34.220Z,17.50
2023-03-27T02:23:02.315Z,16.20
2023-03-27T02:25:38.939Z,18.40
2023-03-27T02:28:35.407Z,35.10
2023-03-27T02:31:32.497Z,23.70
2023-03-27T02:34:20.625Z,19.60
2023-03-27T02:36:55.618Z,20.90
2023-03-27T02:39:52.258Z,19.50
2023-03-27T02:42:34.527Z,18.50
2023-03-27T02:45:15.539Z,17.80
2023-03-27T02:47:46.950Z,17.70
2023-03-27T02:50:27.695Z,20.00
2023-03-27T02:53:01.804Z,20.10
2023-03-27T02:55:35.976Z,17.50
2023-03-27T02:58:07.613Z,17.60
2023-03-27T03:00:50.758Z,19.20
2023-03-27T03:03:39.685Z,21.50
2023-03-27T03:06:15.435Z,19.50
2023-03-27T03:08:46.761Z,17.50
2023-03-27T03:11:15.896Z,20.50
2023-03-27T03:13:49.848Z,17.80
2023-03-27T03:16:20.022Z,17.80
2023-03-27T03:18:49.143Z,18.30
2023-03-27T03:21:17.405Z,18.20
2023-03-27T03:23:57.602Z,19.10
2023-03-27T03:26:32.264Z,26.50
2023-03-27T03:29:02.387Z,18.00
2023-03-27T03:31:43.403Z,16.50
2023-03-27T03:34:12.777Z,16.80
2023-03-27T03:40:00.661Z,18.70
2023-03-27T03:42:29.465Z,15.90
2023-03-27T03:44:57.777Z,16.00
2023-03-27T03:47:27.429Z,14.80
2023-03-27T03:49:55.578Z,23.40
2023-03-27T03:52:25.982Z,16.10
2023-03-27T03:54:55.024Z,20.90
2023-03-27T03:57:25.834Z,17.70
2023-03-27T04:00:12.254Z,17.80
2023-03-27T04:02:57.675Z,24.80
2023-03-27T04:05:26.158Z,27.60
2023-03-27T04:07:56.371Z,27.20
2023-03-27T04:10:32.575Z,17.20
2023-03-27T04:13:03.986Z,25.70
2023-03-27T04:15:35.304Z,29.60
2023-03-27T04:18:20.204Z,23.20
2023-03-27T04:20:49.967Z,28.70
2023-03-27T04:23:19.371Z,32.20
2023-03-27T04:25:47.791Z,24.30
2023-03-27T04:28:21.495Z,26.20
2023-03-27T04:30:54.921Z,26.50
2023-03-27T04:33:52.040Z,28.80
2023-03-27T04:36:46.280Z,24.40
2023-03-27T04:39:22.559Z,26.00
2023-03-27T04:41:50.965Z,25.40
2023-03-27T04:44:19.049Z,27.90
2023-03-27T04:46:50.339Z,25.40
2023-03-27T04:59:33.992Z,30.80
2023-03-27T05:02:28.648Z,27.50
2023-03-27T05:05:04.802Z,27.70
2023-03-27T05:07:36.619Z,21.00
2023-03-27T05:10:06.613Z,22.30
2023-03-27T05:12:35.271Z,28.30
2023-03-27T05:15:07.274Z,22.60
2023-03-27T05:17:40.847Z,27.60
2023-03-27T05:20:17.139Z,34.00
2023-03-27T05:22:46.413Z,43.10
2023-03-27T05:25:33.539Z,40.20
2023-03-27T05:28:06.406Z,34.70
2023-03-27T05:38:16.437Z,35.00
2023-03-27T05:40:58.140Z,35.40
2023-03-27T05:51:11.434Z,41.30
2023-03-27T05:53:43.390Z,27.50
2023-03-27T05:56:23.445Z,38.80
2023-03-27T05:59:02.363Z,31.30
2023-03-27T06:01:35.099Z,29.70
2023-03-27T06:04:04.438Z,32.70
2023-03-27T06:07:02.529Z,34.50
2023-03-27T06:09:32.694Z,23.00
2023-03-27T06:12:24.133Z,24.10
2023-03-27T06:14:56.891Z,19.70
2023-03-27T06:17:37.889Z,27.70
2023-03-27T06:20:12.324Z,20.30
2023-03-27T06:22:59.648Z,20.60
2023-03-27T06:25:33.484Z,19.00
2023-03-27T06:28:02.410Z,22.40
2023-03-27T06:38:10.625Z,26.00
2023-03-27T06:40:40.523Z,20.40
2023-03-27T06:43:09.540Z,23.70
2023-03-27T06:45:50.800Z,23.50
2023-03-27T06:56:18.570Z,31.30
2023-03-27T06:59:07.880Z,35.20
2023-03-27T07:01:36.921Z,30.80
2023-03-27T07:04:42.865Z,24.20
2023-03-27T07:07:21.809Z,22.10
2023-03-27T07:09:50.560Z,24.90
2023-03-27T07:12:22.989Z,16.40
2023-03-27T07:14:52.495Z,19.30
2023-03-27T07:17:21.117Z,15.90
2023-03-27T07:19:55.833Z,17.10
2023-03-27T07:22:29.545Z,15.90
2023-03-27T07:24:58.503Z,15.20
2023-03-27T07:27:27.336Z,13.90
2023-03-27T07:30:02.054Z,30.20
2023-03-27T07:32:37.960Z,17.60
2023-03-27T07:35:09.223Z,11.00
2023-03-27T07:38:12.817Z,21.70
2023-03-27T07:41:06.762Z,14.20
2023-03-27T07:43:54.184Z,15.10
2023-03-27T07:46:24.257Z,15.50
2023-03-27T07:48:52.789Z,16.20
2023-03-27T07:51:28.373Z,19.70
2023-03-27T07:53:58.782Z,16.30
2023-03-27T07:56:36.172Z,12.60
2023-03-27T07:59:34.062Z,16.10
2023-03-27T08:02:10.138Z,16.80
2023-03-27T08:04:39.854Z,12.80
2023-03-27T08:07:10.197Z,8.00
2023-03-27T08:09:38.217Z,8.90
2023-03-27T08:12:08.470Z,10.00
2023-03-27T08:14:41.203Z,9.10
2023-03-27T08:17:27.466Z,19.30
2023-03-27T08:19:56.001Z,8.70
2023-03-27T08:22:24.701Z,10.80
2023-03-27T08:25:11.238Z,8.20
2023-03-27T08:27:40.861Z,11.70
2023-03-27T08:30:16.748Z,10.00
2023-03-27T08:32:45.988Z,12.20
2023-03-27T08:35:14.977Z,12.10
2023-03-27T08:37:44.198Z,7.90
2023-03-27T08:40:34.115Z,8.90
2023-03-27T08:43:42.919Z,8.40
2023-03-27T08:46:15.855Z,8.20
2023-03-27T08:48:52.883Z,7.80
2023-03-27T08:51:32.302Z,7.70
2023-03-27T08:54:12.173Z,7.90
2023-03-27T08:56:40.931Z,10.30
2023-03-27T08:59:21.977Z,11.00
2023-03-27T09:02:36.817Z,14.10
2023-03-27T09:05:19.871Z,7.00
2023-03-27T09:08:13.085Z,5.90
2023-03-27T09:10:45.898Z,6.50
2023-03-27T09:13:48.324Z,7.90
2023-03-27T09:16:24.066Z,11.60
2023-03-27T09:19:12.691Z,9.20
2023-03-27T09:22:11.251Z,7.10
2023-03-27T09:24:49.683Z,7.80
2023-03-27T09:27:48.256Z,8.30
2023-03-27T09:30:37.790Z,7.20
2023-03-27T09:33:13.813Z,7.10
2023-03-27T09:35:43.844Z,5.20
2023-03-27T09:38:33.205Z,5.60
2023-03-27T09:41:06.833Z,6.80
2023-03-27T09:43:46.028Z,8.30
2023-03-27T09:46:17.949Z,5.30
2023-03-27T09:48:58.893Z,5.20
2023-03-27T09:51:52.044Z,6.30
2023-03-27T09:54:53.298Z,6.20
2023-03-27T09:57:32.217Z,8.10
2023-03-27T10:00:09.460Z,8.70
2023-03-27T10:02:43.674Z,8.60
2023-03-27T10:05:17.207Z,5.40
2023-03-27T10:07:49.803Z,9.10
2023-03-27T10:10:42.145Z,11.20
2023-03-27T10:14:45.219Z,8.40
2023-03-27T10:17:26.196Z,13.50
2023-03-27T10:20:13.407Z,9.80
2023-03-27T10:22:43.034Z,9.20
2023-03-27T10:25:19.276Z,7.80
2023-03-27T10:28:14.773Z,9.70
2023-03-27T10:31:09.883Z,9.30
2023-03-27T10:33:56.719Z,7.80
2023-03-27T10:36:57.347Z,8.90
2023-03-27T10:39:29.701Z,10.00
2023-03-27T10:42:13.751Z,8.40
2023-03-27T10:44:46.298Z,7.40
2023-03-27T10:47:26.299Z,10.10
2023-03-27T10:50:39.144Z,8.80
2023-03-27T10:53:23.756Z,11.80
2023-03-27T10:56:19.120Z,9.00
2023-03-27T10:59:06.194Z,8.70
2023-03-27T11:01:42.871Z,8.20
2023-03-27T11:04:47.809Z,6.60
2023-03-27T11:07:47.738Z,9.00
2023-03-27T11:10:22.275Z,11.20
2023-03-27T11:12:56.245Z,10.40
2023-03-27T11:15:31.613Z,8.90
2023-03-27T11:18:00.332Z,7.30
2023-03-27T11:20:52.696Z,8.50
2023-03-27T11:23:37.453Z,6.00
2023-03-27T11:26:28.025Z,10.40
2023-03-27T11:29:10.319Z,8.10
2023-03-27T11:31:46.485Z,7.60
2023-03-27T11:34:28.912Z,9.40
2023-03-27T11:37:06.160Z,9.80
2023-03-27T11:39:55.690Z,7.20
2023-03-27T11:42:29.071Z,7.70
2023-03-27T11:44:57.211Z,7.70
2023-03-27T11:47:49.582Z,6.90
2023-03-27T11:50:44.579Z,6.70
2023-03-27T11:53:25.529Z,7.40
2023-03-27T11:56:35.435Z,8.90
2023-03-27T11:59:24.335Z,8.10
2023-03-27T12:09:43.068Z,7.90
2023-03-27T12:13:38.680Z,6.90
2023-03-27T12:16:44.461Z,8.50
2023-03-27T12:19:39.197Z,8.00
2023-03-27T12:22:31.484Z,7.80
2023-03-27T12:25:24.454Z,7.00
2023-03-27T12:28:35.713Z,18.70
2023-03-27T12:31:36.912Z,8.90
2023-03-27T12:34:25.528Z,9.30
2023-03-27T12:36:53.904Z,9.20
2023-03-27T12:39:26.127Z,7.50
2023-03-27T12:41:54.882Z,10.00
2023-03-27T12:45:13.683Z,8.30
2023-03-27T12:48:04.739Z,7.70
2023-03-27T12:50:42.007Z,14.50
2023-03-27T12:53:26.096Z,9.40
2023-03-27T12:56:24.573Z,11.60
2023-03-27T12:58:54.706Z,14.80
2023-03-27T13:01:51.630Z,9.00
2023-03-27T13:04:53.935Z,10.80
2023-03-27T13:07:35.253Z,11.40
2023-03-27T13:10:17.102Z,9.20
2023-03-27T13:12:54.205Z,9.90
2023-03-27T13:15:33.157Z,9.40
2023-03-27T13:18:41.091Z,8.10
2023-03-27T13:21:31.481Z,9.50
2023-03-27T13:24:23.077Z,9.90
2023-03-27T13:27:01.438Z,9.80
2023-03-27T13:29:33.855Z,10.20
2023-03-27T13:32:30.842Z,9.20
2023-03-27T13:35:19.617Z,9.10
2023-03-27T13:37:50.913Z,9.00
2023-03-27T13:40:33.890Z,10.40
2023-03-27T13:43:28.404Z,9.20
2023-03-27T13:46:05.220Z,12.40
2023-03-27T13:48:50.521Z,13.60
2023-03-27T13:51:41.848Z,12.50
2023-03-27T13:54:38.515Z,15.10
2023-03-27T13:57:45.269Z,13.90
2023-03-27T14:00:25.830Z,15.80
2023-03-27T14:03:04.445Z,11.80
2023-03-27T14:06:03.274Z,13.00
2023-03-27T14:08:55.614Z,9.60
2023-03-27T14:11:45.890Z,13.00
2023-03-27T14:14:33.739Z,9.60
2023-03-27T14:17:08.166Z,9.90
2023-03-27T14:20:35.273Z,10.20
2023-03-27T14:23:05.819Z,9.20
2023-03-27T14:26:14.511Z,9.00
2023-03-27T14:28:59.114Z,9.80
2023-03-27T14:31:36.145Z,10.60
2023-03-27T14:34:12.297Z,12.70
2023-03-27T14:36:49.876Z,23.00
2023-03-27T14:39:27.871Z,18.60
2023-03-27T14:42:02.624Z,30.60
2023-03-27T14:44:36.454Z,27.20
2023-03-27T14:47:12.027Z,29.40
2023-03-27T14:49:45.243Z,36.50
2023-03-27T14:52:18.334Z,27.70
2023-03-27T14:55:12.947Z,20.30
2023-03-27T14:57:42.143Z,16.30
2023-03-27T15:00:21.870Z,14.50
2023-03-27T15:02:52.251Z,26.30
2023-03-27T15:05:22.632Z,17.60
2023-03-27T15:07:56.376Z,16.40
2023-03-27T15:10:54.150Z,27.00
2023-03-27T15:13:48.108Z,14.20
2023-03-27T15:16:24.610Z,17.40
2023-03-27T15:19:00.485Z,19.00
2023-03-27T15:21:46.553Z,16.30
2023-03-27T15:24:19.056Z,25.30
2023-03-27T15:26:48.622Z,17.50
2023-03-27T15:29:35.208Z,18.70
2023-03-27T15:32:08.808Z,21.90
2023-03-27T15:34:47.983Z,30.30
2023-03-27T15:37:25.504Z,40.00
2023-03-27T15:40:33.022Z,32.70
2023-03-27T15:43:13.600Z,26.90
2023-03-27T15:45:54.436Z,23.30
2023-03-27T15:48:29.235Z,18.10
2023-03-27T15:50:58.591Z,19.80
2023-03-27T15:53:38.030Z,19.10
2023-03-27T15:56:12.892Z,19.80
2023-03-27T15:58:57.434Z,17.80
2023-03-27T16:01:26.168Z,20.80
2023-03-27T16:03:58.532Z,18.00
2023-03-27T16:06:32.750Z,25.60
2023-03-27T16:09:01.350Z,19.20
2023-03-27T16:11:43.101Z,19.30
2023-03-27T16:14:37.183Z,21.70
2023-03-27T16:17:12.473Z,20.10
2023-03-27T16:20:21.406Z,20.70
2023-03-27T16:22:49.735Z,19.50
2023-03-27T16:25:17.783Z,20.10
2023-03-27T16:27:48.431Z,23.80
2023-03-27T16:30:43.996Z,24.30
2023-03-27T16:33:16.827Z,26.70
2023-03-27T16:35:45.665Z,20.90
2023-03-27T16:38:14.054Z,20.90
2023-03-27T16:40:43.434Z,23.50
2023-03-27T16:43:12.157Z,19.60
2023-03-27T16:45:41.033Z,19.10
2023-03-27T16:48:10.604Z,21.40
2023-03-27T16:50:42.608Z,29.10
2023-03-27T16:53:11.260Z,24.20
2023-03-27T16:55:39.328Z,30.10
2023-03-27T16:58:07.639Z,26.20
2023-03-27T17:00:36.020Z,38.30
2023-03-27T17:03:23.773Z,35.30
2023-03-27T17:05:52.397Z,30.50
2023-03-27T17:08:20.701Z,26.00
2023-03-27T17:10:48.611Z,25.40
2023-03-27T17:13:17.609Z,27.20
2023-03-27T17:15:51.170Z,24.40
2023-03-27T17:18:25.694Z,24.70
2023-03-27T17:20:53.609Z,27.90
2023-03-27T17:23:28.925Z,21.00
2023-03-27T17:28:53.447Z,19.00
2023-03-27T17:31:22.382Z,22.20
2023-03-27T17:33:50.770Z,21.80
2023-03-27T17:36:29.702Z,21.20
2023-03-27T17:39:02.658Z,23.00
2023-03-27T17:41:32.797Z,23.20
2023-03-27T17:44:07.417Z,22.90
2023-03-27T17:46:36.338Z,27.60
2023-03-27T17:49:04.683Z,29.90
2023-03-27T17:51:34.268Z,35.90
2023-03-27T17:54:05.923Z,38.50
2023-03-27T17:56:34.655Z,35.30
2023-03-27T17:59:02.751Z,40.10
2023-03-27T18:01:32.726Z,36.90
2023-03-27T18:04:01.513Z,35.50
2023-03-27T18:06:30.016Z,35.10
2023-03-27T18:08:58.618Z,70.50
2023-03-27T18:11:26.699Z,40.70
2023-03-27T18:13:55.814Z,34.50
2023-03-27T18:16:24.042Z,23.70
2023-03-27T18:18:54.884Z,21.50
2023-03-27T18:21:23.514Z,12.60
2023-03-27T18:26:27.878Z,8.10
2023-03-27T18:29:02.840Z,7.00
2023-03-27T18:31:31.818Z,5.00
2023-03-27T18:33:59.961Z,6.70
2023-03-27T18:36:28.530Z,4.30
2023-03-27T18:38:57.234Z,3.90
2023-03-27T18:41:26.244Z,2.80
2023-03-27T18:43:54.424Z,2.00
2023-03-27T18:46:22.549Z,2.70
2023-03-27T18:48:51.606Z,2.50
2023-03-27T18:51:19.998Z,1.80
2023-03-27T18:53:49.666Z,1.80
2023-03-27T18:56:22.964Z,2.00
2023-03-27T18:58:51.567Z,2.10
2023-03-27T19:01:20.006Z,1.90
2023-03-27T19:03:51.268Z,1.30
2023-03-27T19:06:20.305Z,1.80
2023-03-27T19:08:48.799Z,2.00
2023-03-27T19:11:18.102Z,2.60
2023-03-27T19:14:05.202Z,1.30
2023-03-27T19:16:59.914Z,1.30
2023-03-27T19:19:54.920Z,3.70
2023-03-27T19:22:51.916Z,2.90
2023-03-27T19:25:35.969Z,2.80
2023-03-27T19:28:04.832Z,4.00
2023-03-27T19:30:37.221Z,0.80
2023-03-27T19:33:06.615Z,1.80
2023-03-27T19:35:35.259Z,0.90
2023-03-27T19:38:03.949Z,1.00
2023-03-27T19:40:32.415Z,2.50
2023-03-27T19:43:01.793Z,1.10
2023-03-27T19:45:30.046Z,1.20
2023-03-27T19:47:58.307Z,1.10
2023-03-27T19:50:27.126Z,1.70
2023-03-27T19:53:09.345Z,3.20
2023-03-27T19:55:39.954Z,1.60
2023-03-27T19:58:08.303Z,2.20
2023-03-27T20:00:44.476Z,2.10
2023-03-27T20:03:16.755Z,2.80
2023-03-27T20:05:52.153Z,1.10
2023-03-27T20:08:23.686Z,2.30
2023-03-27T20:10:52.148Z,1.70
2023-03-27T20:21:02.151Z,0.90
2023-03-27T20:23:32.545Z,2.00
2023-03-27T20:26:03.277Z,1.10
2023-03-27T20:28:36.018Z,1.90
2023-03-27T20:31:05.020Z,1.40
2023-03-27T20:33:37.684Z,1.50
2023-03-27T20:36:06.220Z,1.80
2023-03-27T20:38:36.598Z,4.90
2023-03-27T20:41:06.121Z,2.00
2023-03-27T20:43:37.306Z,1.90
2023-03-27T20:46:07.008Z,1.90
2023-03-27T20:48:53.825Z,2.30
2023-03-27T20:51:24.829Z,2.50
2023-03-27T20:53:58.257Z,2.50
2023-03-27T20:56:28.377Z,2.80
2023-03-27T20:58:56.953Z,2.50
2023-03-27T21:01:27.258Z,4.30
2023-03-27T21:03:58.754Z,2.90
2023-03-27T21:06:27.060Z,2.90
2023-03-27T21:08:58.703Z,3.10
2023-03-27T21:11:27.477Z,3.10
2023-03-27T21:13:55.848Z,3.80
2023-03-27T21:16:31.415Z,4.10
2023-03-27T21:19:00.717Z,3.60
2023-03-27T21:21:32.217Z,3.40
2023-03-27T21:24:01.692Z,4.00
2023-03-27T21:26:30.350Z,3.80
2023-03-27T21:29:04.162Z,4.70
2023-03-27T21:31:32.575Z,5.60
2023-03-27T21:41:39.615Z,5.30
2023-03-27T21:44:07.877Z,6.40
2023-03-27T21:46:36.080Z,4.30
2023-03-27T21:49:04.357Z,5.80
2023-03-27T21:51:32.392Z,5.40
2023-03-27T21:54:03.229Z,4.10
2023-03-27T21:56:32.993Z,5.00
2023-03-27T21:59:01.212Z,4.40
2023-03-27T22:01:30.676Z,4.60
2023-03-27T22:04:02.230Z,4.50
2023-03-27T22:06:30.881Z,6.80
2023-03-27T22:09:00.352Z,4.40
2023-03-27T22:11:28.901Z,5.00
2023-03-27T22:13:57.077Z,4.80
2023-03-27T22:16:28.004Z,5.20
2023-03-27T22:18:56.457Z,5.80
2023-03-27T22:21:27.607Z,5.40
2023-03-27T22:23:56.722Z,5.60
2023-03-27T22:26:29.892Z,5.40
2023-03-27T22:28:58.551Z,6.30
2023-03-27T22:32:58.814Z,6.00
2023-03-27T22:35:31.060Z,6.00
2023-03-27T22:37:59.649Z,6.40
2023-03-27T22:40:27.996Z,5.60
2023-03-27T22:42:57.060Z,5.50
2023-03-27T22:45:25.436Z,5.90
2023-03-27T22:47:55.470Z,5.40
2023-03-27T22:50:24.114Z,6.20
2023-03-27T22:52:52.349Z,5.10
2023-03-27T22:55:20.406Z,6.10
2023-03-27T22:57:48.552Z,5.90
2023-03-27T23:00:17.424Z,6.70
2023-03-27T23:02:46.195Z,5.50
2023-03-27T23:05:15.566Z,5.40
2023-03-27T23:07:45.048Z,4.80
2023-03-27T23:10:14.397Z,5.60
2023-03-27T23:12:42.789Z,5.80
2023-03-27T23:15:11.744Z,7.00
2023-03-27T23:17:39.882Z,3.80
2023-03-27T23:20:13.076Z,3.90
2023-03-27T23:22:42.485Z,4.60
2023-03-27T23:25:10.820Z,4.40
2023-03-27T23:27:41.456Z,4.20
2023-03-27T23:30:11.446Z,3.90
2023-03-27T23:32:40.572Z,4.80
2023-03-27T23:35:10.899Z,4.20
2023-03-27T23:37:38.927Z,4.30
2023-03-27T23:40:08.197Z,4.00
2023-03-27T23:42:36.253Z,4.30
2023-03-27T23:45:05.732Z,4.20
2023-03-27T23:47:33.690Z,3.60
2023-03-27T23:50:01.971Z,4.50
2023-03-27T23:52:31.824Z,3.30
2023-03-27T23:54:59.858Z,3.70
2023-03-27T23:57:32.636Z,3.40
